sensor_id;sensor_type;location;lat;lon;timestamp;pressure;altitude;pressure_sealevel;temperature;humidity
12781;BME280;6454;43.304;24.344;2022-12-24T00:02:19;100152.31;;;2.29;94.57
12781;BME280;6454;43.304;24.344;2022-12-24T00:04:46;100155.44;;;2.37;95.90
12781;BME280;6454;43.304;24.344;2022-12-24T00:07:13;100151.84;;;2.43;97.07
12781;BME280;6454;43.304;24.344;2022-12-24T00:09:39;100164.78;;;2.46;97.91
12781;BME280;6454;43.304;24.344;2022-12-24T00:12:07;100165.34;;;2.60;99.96
12781;BME280;6454;43.304;24.344;2022-12-24T00:14:34;100160.44;;;2.80;100.00
12781;BME280;6454;43.304;24.344;2022-12-24T00:17:01;100163.69;;;2.94;100.00
12781;BME280;6454;43.304;24.344;2022-12-24T00:19:28;100159.09;;;3.06;100.00
12781;BME280;6454;43.304;24.344;2022-12-24T00:21:54;100165.09;;;3.24;100.00
12781;BME280;6454;43.304;24.344;2022-12-24T00:24:21;100165.19;;;3.41;100.00
12781;BME280;6454;43.304;24.344;2022-12-24T00:26:48;100167.06;;;3.57;100.00
12781;BME280;6454;43.304;24.344;2022-12-24T00:29:16;100161.41;;;3.70;100.00
12781;BME280;6454;43.304;24.344;2022-12-24T00:31:43;100154.69;;;3.84;100.00
12781;BME280;6454;43.304;24.344;2022-12-24T00:34:10;100156.81;;;3.99;100.00
12781;BME280;6454;43.304;24.344;2022-12-24T00:36:36;100156.66;;;4.06;100.00
12781;BME280;6454;43.304;24.344;2022-12-24T00:39:03;100147.63;;;4.12;100.00
12781;BME280;6454;43.304;24.344;2022-12-24T00:41:30;100146.75;;;4.23;100.00
12781;BME280;6454;43.304;24.344;2022-12-24T00:43:58;100142.97;;;4.24;100.00
12781;BME280;6454;43.304;24.344;2022-12-24T00:46:28;100134.50;;;4.32;100.00
12781;BME280;6454;43.304;24.344;2022-12-24T00:48:56;100148.34;;;4.24;100.00
12781;BME280;6454;43.304;24.344;2022-12-24T00:51:23;100140.72;;;4.16;100.00
12781;BME280;6454;43.304;24.344;2022-12-24T00:53:50;100133.56;;;4.21;99.58
12781;BME280;6454;43.304;24.344;2022-12-24T00:56:17;100139.44;;;4.18;97.04
12781;BME280;6454;43.304;24.344;2022-12-24T00:58:44;100140.88;;;4.09;95.80
12781;BME280;6454;43.304;24.344;2022-12-24T01:01:11;100137.41;;;4.09;95.83
12781;BME280;6454;43.304;24.344;2022-12-24T01:03:39;100136.00;;;4.06;95.23
12781;BME280;6454;43.304;24.344;2022-12-24T01:06:08;100136.00;;;4.06;93.25
12781;BME280;6454;43.304;24.344;2022-12-24T01:08:35;100131.19;;;3.91;93.01
12781;BME280;6454;43.304;24.344;2022-12-24T01:11:03;100141.59;;;3.88;91.79
12781;BME280;6454;43.304;24.344;2022-12-24T01:13:30;100135.34;;;3.82;91.17
12781;BME280;6454;43.304;24.344;2022-12-24T01:15:57;100135.16;;;3.72;91.88
12781;BME280;6454;43.304;24.344;2022-12-24T01:18:24;100137.84;;;3.72;91.76
12781;BME280;6454;43.304;24.344;2022-12-24T01:20:56;100127.50;;;3.64;92.04
12781;BME280;6454;43.304;24.344;2022-12-24T01:23:23;100133.59;;;3.60;91.99
12781;BME280;6454;43.304;24.344;2022-12-24T01:25:50;100132.38;;;3.51;92.51
12781;BME280;6454;43.304;24.344;2022-12-24T01:28:17;100135.78;;;3.46;92.63
12781;BME280;6454;43.304;24.344;2022-12-24T01:30:44;100129.72;;;3.39;92.61
12781;BME280;6454;43.304;24.344;2022-12-24T01:33:11;100125.44;;;3.38;92.96
12781;BME280;6454;43.304;24.344;2022-12-24T01:35:38;100127.28;;;3.38;91.40
12781;BME280;6454;43.304;24.344;2022-12-24T01:38:07;100127.19;;;3.33;91.77
12781;BME280;6454;43.304;24.344;2022-12-24T01:40:37;100123.28;;;3.23;92.41
12781;BME280;6454;43.304;24.344;2022-12-24T01:43:24;100126.53;;;3.25;92.45
12781;BME280;6454;43.304;24.344;2022-12-24T01:45:54;100120.81;;;3.22;92.27
12781;BME280;6454;43.304;24.344;2022-12-24T01:48:27;100116.91;;;3.13;92.25
12781;BME280;6454;43.304;24.344;2022-12-24T01:51:00;100131.03;;;3.08;92.85
12781;BME280;6454;43.304;24.344;2022-12-24T01:53:30;100119.47;;;3.08;93.39
12781;BME280;6454;43.304;24.344;2022-12-24T01:55:57;100117.75;;;3.02;93.23
12781;BME280;6454;43.304;24.344;2022-12-24T01:58:25;100123.09;;;3.02;93.20
12781;BME280;6454;43.304;24.344;2022-12-24T02:00:52;100122.63;;;3.05;93.44
12781;BME280;6454;43.304;24.344;2022-12-24T02:03:19;100123.59;;;2.99;93.41
12781;BME280;6454;43.304;24.344;2022-12-24T02:05:49;100119.75;;;2.95;94.06
12781;BME280;6454;43.304;24.344;2022-12-24T02:08:16;100120.09;;;2.98;94.18
12781;BME280;6454;43.304;24.344;2022-12-24T02:10:45;100111.50;;;2.85;94.34
12781;BME280;6454;43.304;24.344;2022-12-24T02:13:13;100096.19;;;2.69;95.26
12781;BME280;6454;43.304;24.344;2022-12-24T02:15:53;100124.88;;;2.96;95.55
12781;BME280;6454;43.304;24.344;2022-12-24T02:18:27;100130.56;;;3.00;96.06
12781;BME280;6454;43.304;24.344;2022-12-24T02:21:29;100132.53;;;3.04;96.92
12781;BME280;6454;43.304;24.344;2022-12-24T02:24:32;100129.47;;;3.12;96.90
12781;BME280;6454;43.304;24.344;2022-12-24T02:27:28;100121.78;;;3.16;97.30
12781;BME280;6454;43.304;24.344;2022-12-24T02:30:09;100118.13;;;3.22;98.06
12781;BME280;6454;43.304;24.344;2022-12-24T02:33:03;100116.66;;;3.43;100.00
12781;BME280;6454;43.304;24.344;2022-12-24T02:35:37;100102.44;;;3.42;100.00
12781;BME280;6454;43.304;24.344;2022-12-24T02:38:13;100104.81;;;3.55;100.00
12781;BME280;6454;43.304;24.344;2022-12-24T02:40:46;100103.13;;;3.66;100.00
12781;BME280;6454;43.304;24.344;2022-12-24T02:43:21;100103.22;;;3.71;100.00
12781;BME280;6454;43.304;24.344;2022-12-24T02:45:55;100100.06;;;3.74;100.00
12781;BME280;6454;43.304;24.344;2022-12-24T02:48:23;100096.22;;;3.86;100.00
12781;BME280;6454;43.304;24.344;2022-12-24T02:50:56;100099.06;;;3.97;100.00
12781;BME280;6454;43.304;24.344;2022-12-24T02:53:24;100103.94;;;4.00;100.00
12781;BME280;6454;43.304;24.344;2022-12-24T02:56:01;100108.84;;;4.03;100.00
12781;BME280;6454;43.304;24.344;2022-12-24T02:58:37;100105.91;;;4.04;100.00
12781;BME280;6454;43.304;24.344;2022-12-24T03:01:16;100104.38;;;4.08;100.00
12781;BME280;6454;43.304;24.344;2022-12-24T03:04:02;100110.75;;;4.24;100.00
12781;BME280;6454;43.304;24.344;2022-12-24T03:06:38;100115.66;;;4.27;98.67
12781;BME280;6454;43.304;24.344;2022-12-24T03:09:13;100105.38;;;4.24;98.13
12781;BME280;6454;43.304;24.344;2022-12-24T03:11:49;100101.66;;;4.25;97.76
12781;BME280;6454;43.304;24.344;2022-12-24T03:14:20;100112.41;;;4.25;97.13
12781;BME280;6454;43.304;24.344;2022-12-24T03:16:49;100109.72;;;4.25;97.03
12781;BME280;6454;43.304;24.344;2022-12-24T03:19:16;100117.28;;;4.28;96.79
12781;BME280;6454;43.304;24.344;2022-12-24T03:21:44;100107.59;;;4.27;95.67
12781;BME280;6454;43.304;24.344;2022-12-24T03:24:13;100069.72;;;3.90;94.53
12781;BME280;6454;43.304;24.344;2022-12-24T03:26:40;100112.25;;;4.15;93.65
12781;BME280;6454;43.304;24.344;2022-12-24T03:29:08;100116.78;;;4.14;92.60
12781;BME280;6454;43.304;24.344;2022-12-24T03:31:42;100117.06;;;4.13;91.57
12781;BME280;6454;43.304;24.344;2022-12-24T03:34:11;100109.66;;;4.03;91.55
12781;BME280;6454;43.304;24.344;2022-12-24T03:36:38;100106.63;;;4.00;90.80
12781;BME280;6454;43.304;24.344;2022-12-24T03:39:06;100106.47;;;3.89;90.64
12781;BME280;6454;43.304;24.344;2022-12-24T03:41:32;100099.91;;;3.80;91.20
12781;BME280;6454;43.304;24.344;2022-12-24T03:43:59;100098.81;;;3.81;91.78
12781;BME280;6454;43.304;24.344;2022-12-24T03:46:27;100097.59;;;3.72;90.89
12781;BME280;6454;43.304;24.344;2022-12-24T03:48:53;100101.66;;;3.58;90.45
12781;BME280;6454;43.304;24.344;2022-12-24T03:51:23;100104.34;;;3.58;91.25
12781;BME280;6454;43.304;24.344;2022-12-24T03:53:51;100109.28;;;3.50;90.90
12781;BME280;6454;43.304;24.344;2022-12-24T03:56:18;100113.41;;;3.41;91.31
12781;BME280;6454;43.304;24.344;2022-12-24T03:58:45;100110.28;;;3.32;91.95
12781;BME280;6454;43.304;24.344;2022-12-24T04:01:11;100115.44;;;3.34;92.35
12781;BME280;6454;43.304;24.344;2022-12-24T04:03:38;100112.97;;;3.32;92.34
12781;BME280;6454;43.304;24.344;2022-12-24T04:06:07;100123.59;;;3.27;92.71
12781;BME280;6454;43.304;24.344;2022-12-24T04:08:36;100125.97;;;3.23;93.24
12781;BME280;6454;43.304;24.344;2022-12-24T04:11:03;100109.22;;;3.16;93.45
12781;BME280;6454;43.304;24.344;2022-12-24T04:13:31;100125.97;;;3.23;93.45
12781;BME280;6454;43.304;24.344;2022-12-24T04:15:58;100124.78;;;3.19;93.82
12781;BME280;6454;43.304;24.344;2022-12-24T04:18:26;100127.25;;;3.21;93.71
12781;BME280;6454;43.304;24.344;2022-12-24T04:20:53;100129.13;;;3.20;93.38
12781;BME280;6454;43.304;24.344;2022-12-24T04:23:20;100095.25;;;3.03;92.58
12781;BME280;6454;43.304;24.344;2022-12-24T04:25:48;100130.88;;;3.15;91.95
12781;BME280;6454;43.304;24.344;2022-12-24T04:28:16;100126.38;;;3.04;91.72
12781;BME280;6454;43.304;24.344;2022-12-24T04:30:43;100134.53;;;3.09;92.11
12781;BME280;6454;43.304;24.344;2022-12-24T04:33:10;100137.09;;;3.04;92.48
12781;BME280;6454;43.304;24.344;2022-12-24T04:35:38;100138.00;;;3.09;92.05
12781;BME280;6454;43.304;24.344;2022-12-24T04:38:05;100135.47;;;3.03;91.71
12781;BME280;6454;43.304;24.344;2022-12-24T04:40:32;100137.09;;;3.04;91.36
12781;BME280;6454;43.304;24.344;2022-12-24T04:43:01;100146.66;;;3.00;90.49
12781;BME280;6454;43.304;24.344;2022-12-24T04:45:27;100139.78;;;2.92;90.77
12781;BME280;6454;43.304;24.344;2022-12-24T04:47:54;100142.03;;;2.84;91.75
12781;BME280;6454;43.304;24.344;2022-12-24T04:50:21;100142.16;;;2.89;92.35
12781;BME280;6454;43.304;24.344;2022-12-24T04:52:48;100141.44;;;2.82;92.51
12781;BME280;6454;43.304;24.344;2022-12-24T04:55:14;100144.59;;;2.79;92.76
12781;BME280;6454;43.304;24.344;2022-12-24T04:57:41;100141.69;;;2.80;91.99
12781;BME280;6454;43.304;24.344;2022-12-24T05:00:10;100135.53;;;2.68;92.59
12781;BME280;6454;43.304;24.344;2022-12-24T05:02:37;100148.00;;;2.74;93.20
12781;BME280;6454;43.304;24.344;2022-12-24T05:05:05;100140.19;;;2.73;93.08
12781;BME280;6454;43.304;24.344;2022-12-24T05:07:33;100140.75;;;2.75;92.15
12781;BME280;6454;43.304;24.344;2022-12-24T05:09:59;100143.31;;;2.70;91.67
12781;BME280;6454;43.304;24.344;2022-12-24T05:12:26;100141.94;;;2.67;92.05
12781;BME280;6454;43.304;24.344;2022-12-24T05:14:53;100139.03;;;2.69;92.49
12781;BME280;6454;43.304;24.344;2022-12-24T05:17:21;100146.50;;;2.67;92.82
12781;BME280;6454;43.304;24.344;2022-12-24T05:19:48;100138.34;;;2.62;94.75
12781;BME280;6454;43.304;24.344;2022-12-24T05:22:15;100134.81;;;2.73;96.94
12781;BME280;6454;43.304;24.344;2022-12-24T05:24:59;100121.41;;;2.84;100.00
12781;BME280;6454;43.304;24.344;2022-12-24T05:27:43;100124.50;;;3.04;100.00
12781;BME280;6454;43.304;24.344;2022-12-24T05:30:11;100127.44;;;3.31;100.00
12781;BME280;6454;43.304;24.344;2022-12-24T05:32:39;100122.84;;;3.43;100.00
12781;BME280;6454;43.304;24.344;2022-12-24T05:35:06;100133.03;;;3.58;100.00
12781;BME280;6454;43.304;24.344;2022-12-24T05:37:33;100129.31;;;3.75;100.00
12781;BME280;6454;43.304;24.344;2022-12-24T05:40:00;100124.03;;;3.80;100.00
12781;BME280;6454;43.304;24.344;2022-12-24T05:42:27;100134.22;;;3.95;100.00
12781;BME280;6454;43.304;24.344;2022-12-24T05:44:53;100138.34;;;4.03;100.00
12781;BME280;6454;43.304;24.344;2022-12-24T05:47:20;100134.72;;;4.09;100.00
12781;BME280;6454;43.304;24.344;2022-12-24T05:49:48;100136.88;;;4.12;98.73
12781;BME280;6454;43.304;24.344;2022-12-24T05:52:15;100146.09;;;4.16;98.85
12781;BME280;6454;43.304;24.344;2022-12-24T05:54:42;100135.66;;;4.19;98.08
12781;BME280;6454;43.304;24.344;2022-12-24T05:57:08;100139.50;;;4.23;97.23
12781;BME280;6454;43.304;24.344;2022-12-24T05:59:35;100131.19;;;4.25;96.80
12781;BME280;6454;43.304;24.344;2022-12-24T06:02:02;100129.06;;;4.27;96.09
12781;BME280;6454;43.304;24.344;2022-12-24T06:04:29;100136.25;;;4.21;95.98
12781;BME280;6454;43.304;24.344;2022-12-24T06:06:57;100137.13;;;4.27;96.05
12781;BME280;6454;43.304;24.344;2022-12-24T06:09:24;100145.25;;;4.32;96.14
12781;BME280;6454;43.304;24.344;2022-12-24T06:11:50;100151.78;;;4.36;95.76
12781;BME280;6454;43.304;24.344;2022-12-24T06:14:17;100150.47;;;4.38;95.62
12781;BME280;6454;43.304;24.344;2022-12-24T06:16:44;100148.91;;;4.42;95.61
12781;BME280;6454;43.304;24.344;2022-12-24T06:19:11;100153.53;;;4.47;95.27
12781;BME280;6454;43.304;24.344;2022-12-24T06:21:37;100152.56;;;4.53;94.90
12781;BME280;6454;43.304;24.344;2022-12-24T06:24:06;100150.44;;;4.55;95.06
12781;BME280;6454;43.304;24.344;2022-12-24T06:26:33;100148.94;;;4.64;95.16
12781;BME280;6454;43.304;24.344;2022-12-24T06:29:00;100149.53;;;4.66;94.88
12781;BME280;6454;43.304;24.344;2022-12-24T06:31:27;100149.41;;;4.78;94.68
12781;BME280;6454;43.304;24.344;2022-12-24T06:33:54;100144.19;;;4.88;94.80
12781;BME280;6454;43.304;24.344;2022-12-24T06:36:22;100142.38;;;4.93;94.47
12781;BME280;6454;43.304;24.344;2022-12-24T06:38:50;100133.91;;;4.85;94.13
12781;BME280;6454;43.304;24.344;2022-12-24T06:41:19;100154.38;;;5.07;94.29
12781;BME280;6454;43.304;24.344;2022-12-24T06:43:47;100153.69;;;5.17;93.84
12781;BME280;6454;43.304;24.344;2022-12-24T06:46:15;100161.59;;;5.29;93.36
12781;BME280;6454;43.304;24.344;2022-12-24T06:48:42;100150.13;;;5.33;93.25
12781;BME280;6454;43.304;24.344;2022-12-24T06:51:10;100149.41;;;5.43;92.96
12781;BME280;6454;43.304;24.344;2022-12-24T06:53:37;100160.22;;;5.48;92.71
12781;BME280;6454;43.304;24.344;2022-12-24T06:56:07;100124.81;;;5.34;92.62
12781;BME280;6454;43.304;24.344;2022-12-24T06:58:36;100159.03;;;5.60;92.76
12781;BME280;6454;43.304;24.344;2022-12-24T07:01:04;100150.22;;;5.70;92.54
12781;BME280;6454;43.304;24.344;2022-12-24T07:03:32;100154.34;;;5.77;92.13
12781;BME280;6454;43.304;24.344;2022-12-24T07:05:59;100151.78;;;5.88;92.18
12781;BME280;6454;43.304;24.344;2022-12-24T07:08:26;100156.91;;;5.89;91.77
12781;BME280;6454;43.304;24.344;2022-12-24T07:10:53;100158.81;;;5.94;91.91
12781;BME280;6454;43.304;24.344;2022-12-24T07:13:20;100157.53;;;6.01;92.36
12781;BME280;6454;43.304;24.344;2022-12-24T07:15:56;100169.16;;;6.07;92.46
12781;BME280;6454;43.304;24.344;2022-12-24T07:18:22;100165.50;;;6.18;91.74
12781;BME280;6454;43.304;24.344;2022-12-24T07:20:49;100160.13;;;6.18;91.83
12781;BME280;6454;43.304;24.344;2022-12-24T07:23:16;100152.81;;;6.18;91.78
12781;BME280;6454;43.304;24.344;2022-12-24T07:25:43;100159.91;;;6.24;91.57
12781;BME280;6454;43.304;24.344;2022-12-24T07:28:10;100167.97;;;6.24;91.59
12781;BME280;6454;43.304;24.344;2022-12-24T07:30:36;100169.66;;;6.30;91.06
12781;BME280;6454;43.304;24.344;2022-12-24T07:33:05;100170.25;;;6.37;90.67
12781;BME280;6454;43.304;24.344;2022-12-24T07:35:32;100172.38;;;6.35;90.19
12781;BME280;6454;43.304;24.344;2022-12-24T07:38:00;100158.88;;;6.30;90.57
12781;BME280;6454;43.304;24.344;2022-12-24T07:40:27;100169.81;;;6.51;90.58
12781;BME280;6454;43.304;24.344;2022-12-24T07:42:54;100175.22;;;6.56;90.37
12781;BME280;6454;43.304;24.344;2022-12-24T07:45:20;100177.97;;;6.66;90.80
12781;BME280;6454;43.304;24.344;2022-12-24T07:47:47;100169.94;;;6.76;90.72
12781;BME280;6454;43.304;24.344;2022-12-24T07:50:15;100165.72;;;6.90;90.52
12781;BME280;6454;43.304;24.344;2022-12-24T07:52:42;100160.09;;;7.01;90.60
12781;BME280;6454;43.304;24.344;2022-12-24T07:55:09;100160.47;;;7.20;90.57
12781;BME280;6454;43.304;24.344;2022-12-24T07:57:36;100158.09;;;7.34;90.39
12781;BME280;6454;43.304;24.344;2022-12-24T08:00:03;100155.97;;;7.51;90.41
12781;BME280;6454;43.304;24.344;2022-12-24T08:02:30;100161.69;;;7.69;90.51
12781;BME280;6454;43.304;24.344;2022-12-24T08:04:57;100166.84;;;7.81;89.42
12781;BME280;6454;43.304;24.344;2022-12-24T08:07:25;100162.81;;;7.89;89.37
12781;BME280;6454;43.304;24.344;2022-12-24T08:09:52;100155.53;;;7.99;89.20
12781;BME280;6454;43.304;24.344;2022-12-24T08:12:19;100158.78;;;8.11;88.10
12781;BME280;6454;43.304;24.344;2022-12-24T08:14:45;100154.72;;;8.19;87.77
12781;BME280;6454;43.304;24.344;2022-12-24T08:17:12;100157.69;;;8.22;87.90
12781;BME280;6454;43.304;24.344;2022-12-24T08:19:39;100174.47;;;8.34;87.38
12781;BME280;6454;43.304;24.344;2022-12-24T08:22:06;100173.66;;;8.44;87.25
12781;BME280;6454;43.304;24.344;2022-12-24T08:24:34;100178.25;;;8.49;85.74
12781;BME280;6454;43.304;24.344;2022-12-24T08:27:02;100171.47;;;8.61;85.80
12781;BME280;6454;43.304;24.344;2022-12-24T08:29:28;100171.16;;;8.78;84.58
12781;BME280;6454;43.304;24.344;2022-12-24T08:31:55;100180.06;;;8.88;84.12
12781;BME280;6454;43.304;24.344;2022-12-24T08:34:22;100167.88;;;9.01;83.00
12781;BME280;6454;43.304;24.344;2022-12-24T08:36:49;100178.34;;;9.18;82.75
12781;BME280;6454;43.304;24.344;2022-12-24T08:39:15;100171.28;;;9.32;82.82
12781;BME280;6454;43.304;24.344;2022-12-24T08:41:43;100172.56;;;9.44;82.94
12781;BME280;6454;43.304;24.344;2022-12-24T08:44:10;100172.22;;;9.61;82.06
12781;BME280;6454;43.304;24.344;2022-12-24T08:46:37;100182.44;;;9.74;81.48
12781;BME280;6454;43.304;24.344;2022-12-24T08:49:04;100173.44;;;9.84;81.29
12781;BME280;6454;43.304;24.344;2022-12-24T08:51:30;100163.88;;;9.96;81.39
12781;BME280;6454;43.304;24.344;2022-12-24T08:53:57;100156.47;;;10.07;81.05
12781;BME280;6454;43.304;24.344;2022-12-24T08:56:24;100157.22;;;10.17;81.17
12781;BME280;6454;43.304;24.344;2022-12-24T08:58:52;100160.91;;;10.31;80.34
12781;BME280;6454;43.304;24.344;2022-12-24T09:01:20;100156.19;;;10.42;80.35
12781;BME280;6454;43.304;24.344;2022-12-24T09:03:47;100155.56;;;10.50;80.51
12781;BME280;6454;43.304;24.344;2022-12-24T09:06:14;100150.56;;;10.62;80.95
12781;BME280;6454;43.304;24.344;2022-12-24T09:08:41;100155.13;;;10.72;81.21
12781;BME280;6454;43.304;24.344;2022-12-24T09:11:10;100153.94;;;10.78;79.10
12781;BME280;6454;43.304;24.344;2022-12-24T09:13:37;100155.53;;;10.84;78.71
12781;BME280;6454;43.304;24.344;2022-12-24T09:16:07;100150.25;;;10.92;78.50
12781;BME280;6454;43.304;24.344;2022-12-24T09:18:34;100148.06;;;10.94;79.20
12781;BME280;6454;43.304;24.344;2022-12-24T09:21:01;100155.13;;;10.95;78.39
12781;BME280;6454;43.304;24.344;2022-12-24T09:23:29;100157.03;;;10.95;78.60
12781;BME280;6454;43.304;24.344;2022-12-24T09:25:56;100133.56;;;10.80;78.14
12781;BME280;6454;43.304;24.344;2022-12-24T09:28:22;100154.53;;;10.98;76.02
12781;BME280;6454;43.304;24.344;2022-12-24T09:30:57;100154.25;;;11.00;75.34
12781;BME280;6454;43.304;24.344;2022-12-24T09:33:26;100142.88;;;10.98;75.55
12781;BME280;6454;43.304;24.344;2022-12-24T09:35:53;100159.09;;;11.03;75.41
12781;BME280;6454;43.304;24.344;2022-12-24T09:38:20;100164.78;;;11.07;75.24
12781;BME280;6454;43.304;24.344;2022-12-24T09:40:47;100156.69;;;11.02;74.37
12781;BME280;6454;43.304;24.344;2022-12-24T09:43:16;100159.28;;;11.12;74.20
12781;BME280;6454;43.304;24.344;2022-12-24T09:45:48;100159.56;;;11.10;74.28
12781;BME280;6454;43.304;24.344;2022-12-24T09:48:22;100160.88;;;11.13;74.60
12781;BME280;6454;43.304;24.344;2022-12-24T09:50:54;100165.50;;;11.12;74.61
12781;BME280;6454;43.304;24.344;2022-12-24T09:53:25;100172.63;;;11.08;74.40
12781;BME280;6454;43.304;24.344;2022-12-24T09:55:56;100169.91;;;11.08;74.55
12781;BME280;6454;43.304;24.344;2022-12-24T09:58:27;100162.34;;;11.05;74.51
12781;BME280;6454;43.304;24.344;2022-12-24T10:00:56;100161.81;;;11.03;74.94
12781;BME280;6454;43.304;24.344;2022-12-24T10:03:23;100158.66;;;10.96;75.06
12781;BME280;6454;43.304;24.344;2022-12-24T10:05:59;100167.59;;;10.96;75.62
12781;BME280;6454;43.304;24.344;2022-12-24T10:08:33;100174.41;;;10.94;75.31
12781;BME280;6454;43.304;24.344;2022-12-24T10:11:07;100172.78;;;10.93;75.95
12781;BME280;6454;43.304;24.344;2022-12-24T10:13:49;100163.19;;;11.00;76.01
12781;BME280;6454;43.304;24.344;2022-12-24T10:16:22;100164.47;;;11.08;75.93
12781;BME280;6454;43.304;24.344;2022-12-24T10:18:55;100162.78;;;11.12;76.02
12781;BME280;6454;43.304;24.344;2022-12-24T10:21:36;100161.66;;;11.18;76.82
12781;BME280;6454;43.304;24.344;2022-12-24T10:24:11;100144.59;;;11.13;76.36
12781;BME280;6454;43.304;24.344;2022-12-24T10:26:43;100151.75;;;11.27;76.78
12781;BME280;6454;43.304;24.344;2022-12-24T10:29:14;100144.09;;;11.29;77.27
12781;BME280;6454;43.304;24.344;2022-12-24T10:31:49;100147.56;;;11.35;75.90
12781;BME280;6454;43.304;24.344;2022-12-24T10:34:21;100158.69;;;11.38;75.35
12781;BME280;6454;43.304;24.344;2022-12-24T10:36:50;100150.47;;;11.43;75.05
12781;BME280;6454;43.304;24.344;2022-12-24T10:39:19;100146.06;;;11.47;74.83
12781;BME280;6454;43.304;24.344;2022-12-24T10:41:48;100154.19;;;11.47;74.57
12781;BME280;6454;43.304;24.344;2022-12-24T10:44:18;100146.06;;;11.47;75.04
12781;BME280;6454;43.304;24.344;2022-12-24T10:46:46;100147.31;;;11.55;75.44
12781;BME280;6454;43.304;24.344;2022-12-24T10:49:15;100135.56;;;11.59;75.11
12781;BME280;6454;43.304;24.344;2022-12-24T10:51:46;100132.34;;;11.57;75.70
12781;BME280;6454;43.304;24.344;2022-12-24T10:54:18;100132.25;;;11.62;76.17
12781;BME280;6454;43.304;24.344;2022-12-24T10:56:46;100028.59;;;10.99;77.07
12781;BME280;6454;43.304;24.344;2022-12-24T10:59:26;100118.16;;;11.60;77.96
12781;BME280;6454;43.304;24.344;2022-12-24T11:01:56;100117.59;;;11.63;78.03
12781;BME280;6454;43.304;24.344;2022-12-24T11:04:24;100122.78;;;11.60;78.80
12781;BME280;6454;43.304;24.344;2022-12-24T11:06:53;100127.88;;;11.67;79.26
12781;BME280;6454;43.304;24.344;2022-12-24T11:09:24;100095.63;;;11.41;79.74
12781;BME280;6454;43.304;24.344;2022-12-24T11:11:51;100145.22;;;11.71;79.91
12781;BME280;6454;43.304;24.344;2022-12-24T11:14:19;100122.03;;;11.54;80.68
12781;BME280;6454;43.304;24.344;2022-12-24T11:16:49;100143.59;;;11.70;80.95
12781;BME280;6454;43.304;24.344;2022-12-24T11:19:19;100132.84;;;11.59;81.40
12781;BME280;6454;43.304;24.344;2022-12-24T11:21:57;100133.59;;;11.46;82.84
12781;BME280;6454;43.304;24.344;2022-12-24T11:24:28;100125.38;;;11.51;83.48
12781;BME280;6454;43.304;24.344;2022-12-24T11:27:23;100128.09;;;11.51;84.50
12781;BME280;6454;43.304;24.344;2022-12-24T11:30:16;100133.22;;;11.53;85.62
12781;BME280;6454;43.304;24.344;2022-12-24T11:32:45;100134.09;;;11.48;86.52
12781;BME280;6454;43.304;24.344;2022-12-24T11:35:15;100132.78;;;11.46;87.66
12781;BME280;6454;43.304;24.344;2022-12-24T11:37:42;100135.38;;;11.32;87.21
12781;BME280;6454;43.304;24.344;2022-12-24T11:40:20;100134.44;;;11.23;88.52
12781;BME280;6454;43.304;24.344;2022-12-24T11:42:49;100127.97;;;11.19;88.89
12781;BME280;6454;43.304;24.344;2022-12-24T11:45:21;100130.75;;;11.14;89.08
12781;BME280;6454;43.304;24.344;2022-12-24T11:47:48;100126.41;;;11.13;88.49
12781;BME280;6454;43.304;24.344;2022-12-24T11:50:22;100121.50;;;11.15;88.29
12781;BME280;6454;43.304;24.344;2022-12-24T11:52:53;100132.34;;;11.15;88.67
12781;BME280;6454;43.304;24.344;2022-12-24T11:55:32;100126.78;;;11.07;88.78
12781;BME280;6454;43.304;24.344;2022-12-24T11:58:04;100133.16;;;11.16;88.84
12781;BME280;6454;43.304;24.344;2022-12-24T12:00:38;100127.97;;;11.19;89.00
12781;BME280;6454;43.304;24.344;2022-12-24T12:03:23;100117.56;;;11.26;88.95
12781;BME280;6454;43.304;24.344;2022-12-24T12:05:54;100121.88;;;11.27;88.51
12781;BME280;6454;43.304;24.344;2022-12-24T12:08:21;100128.34;;;11.31;88.92
12781;BME280;6454;43.304;24.344;2022-12-24T12:10:51;100119.09;;;11.32;89.09
12781;BME280;6454;43.304;24.344;2022-12-24T12:13:21;100120.94;;;11.37;89.52
12781;BME280;6454;43.304;24.344;2022-12-24T12:16:04;100115.66;;;11.45;88.15
12781;BME280;6454;43.304;24.344;2022-12-24T12:18:35;100104.34;;;11.38;88.43
12781;BME280;6454;43.304;24.344;2022-12-24T12:21:07;100113.19;;;11.49;88.35
12781;BME280;6454;43.304;24.344;2022-12-24T12:23:39;100119.94;;;11.51;88.46
12781;BME280;6454;43.304;24.344;2022-12-24T12:26:14;100121.53;;;11.52;89.00
12781;BME280;6454;43.304;24.344;2022-12-24T12:28:46;100128.28;;;11.55;88.03
12781;BME280;6454;43.304;24.344;2022-12-24T12:31:19;100119.31;;;11.54;85.98
12781;BME280;6454;43.304;24.344;2022-12-24T12:33:50;100129.03;;;11.60;83.94
12781;BME280;6454;43.304;24.344;2022-12-24T12:36:21;100126.25;;;11.65;81.66
12781;BME280;6454;43.304;24.344;2022-12-24T12:38:51;100131.94;;;11.69;80.50
12781;BME280;6454;43.304;24.344;2022-12-24T12:41:36;100134.06;;;11.72;79.45
12781;BME280;6454;43.304;24.344;2022-12-24T12:44:35;100147.28;;;11.79;80.21
12781;BME280;6454;43.304;24.344;2022-12-24T12:47:25;100146.69;;;11.82;80.21
12781;BME280;6454;43.304;24.344;2022-12-24T12:50:02;100147.72;;;11.86;80.53
12781;BME280;6454;43.304;24.344;2022-12-24T12:52:42;100147.72;;;11.86;80.54
12781;BME280;6454;43.304;24.344;2022-12-24T12:55:22;100159.03;;;11.93;78.53
12781;BME280;6454;43.304;24.344;2022-12-24T12:57:59;100162.06;;;11.91;78.47
12781;BME280;6454;43.304;24.344;2022-12-24T13:00:28;100161.25;;;11.91;78.14
12781;BME280;6454;43.304;24.344;2022-12-24T13:12:10;100154.22;;;11.66;84.70
12781;BME280;6454;43.304;24.344;2022-12-24T13:14:57;100155.31;;;11.65;84.70
12781;BME280;6454;43.304;24.344;2022-12-24T13:17:45;100149.69;;;11.61;84.97
12781;BME280;6454;43.304;24.344;2022-12-24T13:20:20;100150.78;;;11.60;85.52